sensor_id;sensor_type;location;lat;lon;timestamp;temperature;humidity
46932;DHT22;32670;51.464;11.964;2024-01-25T00:01:06;22.50;51.00
46932;DHT22;32670;51.464;11.964;2024-01-25T00:03:32;22.50;51.10
46932;DHT22;32670;51.464;11.964;2024-01-25T00:05:57;22.50;51.00
46932;DHT22;32670;51.464;11.964;2024-01-25T00:08:23;22.50;51.10
46932;DHT22;32670;51.464;11.964;2024-01-25T00:10:48;22.50;51.10
46932;DHT22;32670;51.464;11.964;2024-01-25T00:13:14;22.50;51.10
46932;DHT22;32670;51.464;11.964;2024-01-25T00:15:39;22.50;51.30
46932;DHT22;32670;51.464;11.964;2024-01-25T00:18:05;22.50;51.40
46932;DHT22;32670;51.464;11.964;2024-01-25T00:20:30;22.50;52.00
46932;DHT22;32670;51.464;11.964;2024-01-25T00:22:56;22.50;51.50
46932;DHT22;32670;51.464;11.964;2024-01-25T00:25:21;22.50;51.50
46932;DHT22;32670;51.464;11.964;2024-01-25T00:27:47;22.50;51.50
46932;DHT22;32670;51.464;11.964;2024-01-25T00:30:12;22.50;51.50
46932;DHT22;32670;51.464;11.964;2024-01-25T00:32:38;22.50;51.50
46932;DHT22;32670;51.464;11.964;2024-01-25T00:35:04;22.50;51.50
46932;DHT22;32670;51.464;11.964;2024-01-25T00:37:30;22.50;51.50
46932;DHT22;32670;51.464;11.964;2024-01-25T00:39:55;22.50;51.40
46932;DHT22;32670;51.464;11.964;2024-01-25T00:42:22;22.50;51.50
46932;DHT22;32670;51.464;11.964;2024-01-25T00:44:48;22.50;51.50
46932;DHT22;32670;51.464;11.964;2024-01-25T00:47:13;22.50;51.70
46932;DHT22;32670;51.464;11.964;2024-01-25T00:49:39;22.50;51.80
46932;DHT22;32670;51.464;11.964;2024-01-25T00:52:05;22.50;51.80
46932;DHT22;32670;51.464;11.964;2024-01-25T00:54:31;22.50;51.70
46932;DHT22;32670;51.464;11.964;2024-01-25T00:56:57;22.50;51.70
46932;DHT22;32670;51.464;11.964;2024-01-25T00:59:23;22.50;51.80
46932;DHT22;32670;51.464;11.964;2024-01-25T01:01:49;22.50;51.80
46932;DHT22;32670;51.464;11.964;2024-01-25T01:04:18;22.50;52.30
46932;DHT22;32670;51.464;11.964;2024-01-25T01:06:43;22.50;52.10
46932;DHT22;32670;51.464;11.964;2024-01-25T01:09:09;22.60;52.40
46932;DHT22;32670;51.464;11.964;2024-01-25T01:11:36;22.50;52.40
46932;DHT22;32670;51.464;11.964;2024-01-25T01:14:02;22.60;52.40
46932;DHT22;32670;51.464;11.964;2024-01-25T01:16:27;22.60;52.50
46932;DHT22;32670;51.464;11.964;2024-01-25T01:18:55;22.60;52.50
46932;DHT22;32670;51.464;11.964;2024-01-25T01:21:21;22.60;52.70
46932;DHT22;32670;51.464;11.964;2024-01-25T01:23:46;22.60;52.50
46932;DHT22;32670;51.464;11.964;2024-01-25T01:26:12;22.60;52.60
46932;DHT22;32670;51.464;11.964;2024-01-25T01:28:37;22.60;52.60
46932;DHT22;32670;51.464;11.964;2024-01-25T01:31:03;22.60;51.80
46932;DHT22;32670;51.464;11.964;2024-01-25T01:33:28;22.60;52.20
46932;DHT22;32670;51.464;11.964;2024-01-25T01:35:54;22.60;52.30
46932;DHT22;32670;51.464;11.964;2024-01-25T01:38:19;22.60;52.30
46932;DHT22;32670;51.464;11.964;2024-01-25T01:40:45;22.60;52.50
46932;DHT22;32670;51.464;11.964;2024-01-25T01:43:20;22.60;52.40
46932;DHT22;32670;51.464;11.964;2024-01-25T01:45:48;22.60;52.40
46932;DHT22;32670;51.464;11.964;2024-01-25T01:48:15;22.60;52.40
46932;DHT22;32670;51.464;11.964;2024-01-25T01:50:41;22.60;52.40
46932;DHT22;32670;51.464;11.964;2024-01-25T01:53:07;22.60;52.40
46932;DHT22;32670;51.464;11.964;2024-01-25T01:55:33;22.60;52.50
46932;DHT22;32670;51.464;11.964;2024-01-25T01:57:59;22.60;52.40
46932;DHT22;32670;51.464;11.964;2024-01-25T02:00:26;22.60;52.40
46932;DHT22;32670;51.464;11.964;2024-01-25T02:02:51;22.60;52.50
46932;DHT22;32670;51.464;11.964;2024-01-25T02:05:17;22.60;52.50
46932;DHT22;32670;51.464;11.964;2024-01-25T02:07:43;22.60;52.50
46932;DHT22;32670;51.464;11.964;2024-01-25T02:10:09;22.60;52.60
46932;DHT22;32670;51.464;11.964;2024-01-25T02:12:35;22.60;52.60
46932;DHT22;32670;51.464;11.964;2024-01-25T02:15:00;22.60;52.50
46932;DHT22;32670;51.464;11.964;2024-01-25T02:17:26;22.60;52.60
46932;DHT22;32670;51.464;11.964;2024-01-25T02:19:51;22.60;52.70
46932;DHT22;32670;51.464;11.964;2024-01-25T02:22:19;22.60;52.60
46932;DHT22;32670;51.464;11.964;2024-01-25T02:24:45;22.60;52.70
46932;DHT22;32670;51.464;11.964;2024-01-25T02:27:10;22.60;52.70
46932;DHT22;32670;51.464;11.964;2024-01-25T02:29:36;22.60;52.60
46932;DHT22;32670;51.464;11.964;2024-01-25T02:32:02;22.60;53.00
46932;DHT22;32670;51.464;11.964;2024-01-25T02:34:27;22.60;53.10
46932;DHT22;32670;51.464;11.964;2024-01-25T02:36:53;22.60;53.10
46932;DHT22;32670;51.464;11.964;2024-01-25T02:39:18;22.60;53.10
46932;DHT22;32670;51.464;11.964;2024-01-25T02:41:44;22.70;53.20
46932;DHT22;32670;51.464;11.964;2024-01-25T02:44:10;22.60;53.00
46932;DHT22;32670;51.464;11.964;2024-01-25T02:46:36;22.60;53.10
46932;DHT22;32670;51.464;11.964;2024-01-25T02:49:02;22.60;53.10
46932;DHT22;32670;51.464;11.964;2024-01-25T02:51:27;22.60;53.20
46932;DHT22;32670;51.464;11.964;2024-01-25T02:53:53;22.70;53.40
46932;DHT22;32670;51.464;11.964;2024-01-25T02:56:18;22.70;53.50
46932;DHT22;32670;51.464;11.964;2024-01-25T02:58:43;22.60;53.50
46932;DHT22;32670;51.464;11.964;2024-01-25T03:01:09;22.60;53.50
46932;DHT22;32670;51.464;11.964;2024-01-25T03:03:34;22.60;53.50
46932;DHT22;32670;51.464;11.964;2024-01-25T03:06:00;22.60;53.50
46932;DHT22;32670;51.464;11.964;2024-01-25T03:08:26;22.60;53.60
46932;DHT22;32670;51.464;11.964;2024-01-25T03:10:51;22.70;53.60
46932;DHT22;32670;51.464;11.964;2024-01-25T03:13:17;22.60;53.60
46932;DHT22;32670;51.464;11.964;2024-01-25T03:15:43;22.70;53.70
46932;DHT22;32670;51.464;11.964;2024-01-25T03:18:09;22.60;53.60
46932;DHT22;32670;51.464;11.964;2024-01-25T03:20:34;22.70;53.70
46932;DHT22;32670;51.464;11.964;2024-01-25T03:23:00;22.70;53.80
46932;DHT22;32670;51.464;11.964;2024-01-25T03:25:25;22.70;53.80
46932;DHT22;32670;51.464;11.964;2024-01-25T03:27:51;22.60;53.80
46932;DHT22;32670;51.464;11.964;2024-01-25T03:30:17;22.70;54.00
46932;DHT22;32670;51.464;11.964;2024-01-25T03:32:42;22.60;53.90
46932;DHT22;32670;51.464;11.964;2024-01-25T03:35:08;22.70;54.10
46932;DHT22;32670;51.464;11.964;2024-01-25T03:37:33;22.70;54.00
46932;DHT22;32670;51.464;11.964;2024-01-25T03:39:59;22.60;54.00
46932;DHT22;32670;51.464;11.964;2024-01-25T03:42:24;22.70;54.00
46932;DHT22;32670;51.464;11.964;2024-01-25T03:44:50;22.70;53.90
46932;DHT22;32670;51.464;11.964;2024-01-25T03:47:15;22.70;53.90
46932;DHT22;32670;51.464;11.964;2024-01-25T03:49:40;22.70;53.10
46932;DHT22;32670;51.464;11.964;2024-01-25T03:52:06;22.60;53.70
46932;DHT22;32670;51.464;11.964;2024-01-25T03:54:32;22.60;54.00
46932;DHT22;32670;51.464;11.964;2024-01-25T03:56:57;22.70;54.00
46932;DHT22;32670;51.464;11.964;2024-01-25T03:59:23;22.70;53.90
46932;DHT22;32670;51.464;11.964;2024-01-25T04:01:48;22.70;54.00
46932;DHT22;32670;51.464;11.964;2024-01-25T04:04:14;22.70;54.00
46932;DHT22;32670;51.464;11.964;2024-01-25T04:06:43;22.70;54.00
46932;DHT22;32670;51.464;11.964;2024-01-25T04:09:09;22.70;53.90
46932;DHT22;32670;51.464;11.964;2024-01-25T04:11:36;22.70;53.90
46932;DHT22;32670;51.464;11.964;2024-01-25T04:14:01;22.70;54.00
46932;DHT22;32670;51.464;11.964;2024-01-25T04:16:27;22.70;53.90
46932;DHT22;32670;51.464;11.964;2024-01-25T04:18:52;22.70;53.90
46932;DHT22;32670;51.464;11.964;2024-01-25T04:21:18;22.70;53.90
46932;DHT22;32670;51.464;11.964;2024-01-25T04:23:43;22.70;54.00
46932;DHT22;32670;51.464;11.964;2024-01-25T04:26:09;22.70;54.00
46932;DHT22;32670;51.464;11.964;2024-01-25T04:28:34;22.70;53.90
46932;DHT22;32670;51.464;11.964;2024-01-25T04:31:01;22.70;54.10
46932;DHT22;32670;51.464;11.964;2024-01-25T04:33:26;22.70;54.10
46932;DHT22;32670;51.464;11.964;2024-01-25T04:35:52;22.70;54.20
46932;DHT22;32670;51.464;11.964;2024-01-25T04:38:17;22.70;54.20
46932;DHT22;32670;51.464;11.964;2024-01-25T04:40:43;22.70;54.20
46932;DHT22;32670;51.464;11.964;2024-01-25T04:43:08;22.70;54.20
46932;DHT22;32670;51.464;11.964;2024-01-25T04:45:34;22.70;54.30
46932;DHT22;32670;51.464;11.964;2024-01-25T04:47:59;22.70;54.20
46932;DHT22;32670;51.464;11.964;2024-01-25T04:50:25;22.70;54.20
46932;DHT22;32670;51.464;11.964;2024-01-25T04:52:50;22.70;54.10
46932;DHT22;32670;51.464;11.964;2024-01-25T04:55:15;22.70;54.10
46932;DHT22;32670;51.464;11.964;2024-01-25T04:57:41;22.70;54.10
46932;DHT22;32670;51.464;11.964;2024-01-25T05:00:07;22.70;54.10
46932;DHT22;32670;51.464;11.964;2024-01-25T05:02:33;22.70;54.10
46932;DHT22;32670;51.464;11.964;2024-01-25T05:04:59;22.70;54.00
46932;DHT22;32670;51.464;11.964;2024-01-25T05:07:24;22.70;54.20
46932;DHT22;32670;51.464;11.964;2024-01-25T05:09:50;22.70;54.10
46932;DHT22;32670;51.464;11.964;2024-01-25T05:12:15;22.80;54.20
46932;DHT22;32670;51.464;11.964;2024-01-25T05:14:40;22.80;54.10
46932;DHT22;32670;51.464;11.964;2024-01-25T05:17:06;22.80;54.30
46932;DHT22;32670;51.464;11.964;2024-01-25T05:19:31;22.70;54.10
46932;DHT22;32670;51.464;11.964;2024-01-25T05:21:57;22.70;54.20
46932;DHT22;32670;51.464;11.964;2024-01-25T05:24:22;22.80;54.20
46932;DHT22;32670;51.464;11.964;2024-01-25T05:26:48;22.70;54.10
46932;DHT22;32670;51.464;11.964;2024-01-25T05:29:13;22.80;54.00
46932;DHT22;32670;51.464;11.964;2024-01-25T05:31:39;22.80;54.00
46932;DHT22;32670;51.464;11.964;2024-01-25T05:34:04;22.70;53.90
46932;DHT22;32670;51.464;11.964;2024-01-25T05:36:29;22.70;54.00
46932;DHT22;32670;51.464;11.964;2024-01-25T05:38:55;22.80;54.00
46932;DHT22;32670;51.464;11.964;2024-01-25T05:41:20;22.80;54.00
46932;DHT22;32670;51.464;11.964;2024-01-25T05:43:46;22.70;53.90
46932;DHT22;32670;51.464;11.964;2024-01-25T05:46:11;22.70;53.90
46932;DHT22;32670;51.464;11.964;2024-01-25T05:48:37;22.80;53.90
46932;DHT22;32670;51.464;11.964;2024-01-25T05:51:02;22.70;53.70
46932;DHT22;32670;51.464;11.964;2024-01-25T05:53:28;22.80;53.90
46932;DHT22;32670;51.464;11.964;2024-01-25T05:55:53;22.70;53.30
46932;DHT22;32670;51.464;11.964;2024-01-25T05:58:19;22.70;53.00
46932;DHT22;32670;51.464;11.964;2024-01-25T06:00:44;22.70;52.70
46932;DHT22;32670;51.464;11.964;2024-01-25T06:03:09;22.70;53.10
46932;DHT22;32670;51.464;11.964;2024-01-25T06:05:35;22.70;53.00
46932;DHT22;32670;51.464;11.964;2024-01-25T06:08:01;22.80;53.10
46932;DHT22;32670;51.464;11.964;2024-01-25T06:10:26;22.70;53.00
46932;DHT22;32670;51.464;11.964;2024-01-25T06:12:52;22.70;53.10
46932;DHT22;32670;51.464;11.964;2024-01-25T06:15:17;22.80;53.10
46932;DHT22;32670;51.464;11.964;2024-01-25T06:17:43;22.70;53.30
46932;DHT22;32670;51.464;11.964;2024-01-25T06:20:08;22.80;53.40
46932;DHT22;32670;51.464;11.964;2024-01-25T06:22:35;22.70;53.30
46932;DHT22;32670;51.464;11.964;2024-01-25T06:25:01;22.70;53.30
46932;DHT22;32670;51.464;11.964;2024-01-25T06:27:29;22.70;53.10
46932;DHT22;32670;51.464;11.964;2024-01-25T06:29:54;22.70;53.10
46932;DHT22;32670;51.464;11.964;2024-01-25T06:32:19;22.70;53.10
46932;DHT22;32670;51.464;11.964;2024-01-25T06:34:45;22.70;53.30
46932;DHT22;32670;51.464;11.964;2024-01-25T06:37:10;22.70;53.20
46932;DHT22;32670;51.464;11.964;2024-01-25T06:39:37;22.70;53.20
46932;DHT22;32670;51.464;11.964;2024-01-25T06:42:03;22.70;53.50
46932;DHT22;32670;51.464;11.964;2024-01-25T06:44:29;22.70;53.10
46932;DHT22;32670;51.464;11.964;2024-01-25T06:46:54;22.70;53.10
46932;DHT22;32670;51.464;11.964;2024-01-25T06:49:19;22.80;53.20
46932;DHT22;32670;51.464;11.964;2024-01-25T06:51:45;22.80;53.00
46932;DHT22;32670;51.464;11.964;2024-01-25T06:54:10;22.60;49.10
46932;DHT22;32670;51.464;11.964;2024-01-25T06:56:36;22.60;46.80
46932;DHT22;32670;51.464;11.964;2024-01-25T06:59:02;22.30;45.30
46932;DHT22;32670;51.464;11.964;2024-01-25T07:01:27;21.70;41.30
46932;DHT22;32670;51.464;11.964;2024-01-25T07:03:53;21.50;40.90
46932;DHT22;32670;51.464;11.964;2024-01-25T07:06:19;21.40;40.80
46932;DHT22;32670;51.464;11.964;2024-01-25T07:08:45;21.20;40.30
46932;DHT22;32670;51.464;11.964;2024-01-25T07:11:10;21.00;40.20
46932;DHT22;32670;51.464;11.964;2024-01-25T07:13:36;21.00;40.10
46932;DHT22;32670;51.464;11.964;2024-01-25T07:16:01;21.00;40.00
46932;DHT22;32670;51.464;11.964;2024-01-25T07:18:27;20.90;39.70
46932;DHT22;32670;51.464;11.964;2024-01-25T07:20:53;21.00;39.90
46932;DHT22;32670;51.464;11.964;2024-01-25T07:23:21;21.00;39.50
46932;DHT22;32670;51.464;11.964;2024-01-25T07:25:47;21.00;39.50
46932;DHT22;32670;51.464;11.964;2024-01-25T07:28:13;20.90;39.00
46932;DHT22;32670;51.464;11.964;2024-01-25T07:30:38;21.00;39.20
46932;DHT22;32670;51.464;11.964;2024-01-25T07:33:04;21.00;39.20
46932;DHT22;32670;51.464;11.964;2024-01-25T07:35:29;21.00;38.90
46932;DHT22;32670;51.464;11.964;2024-01-25T07:37:55;21.00;38.90
46932;DHT22;32670;51.464;11.964;2024-01-25T07:40:20;21.00;38.70
46932;DHT22;32670;51.464;11.964;2024-01-25T07:42:46;20.90;38.50
46932;DHT22;32670;51.464;11.964;2024-01-25T07:45:12;20.90;39.00
46932;DHT22;32670;51.464;11.964;2024-01-25T07:47:40;20.90;39.00
46932;DHT22;32670;51.464;11.964;2024-01-25T07:50:06;20.90;39.00
46932;DHT22;32670;51.464;11.964;2024-01-25T07:52:32;20.90;39.10
46932;DHT22;32670;51.464;11.964;2024-01-25T07:54:57;20.90;39.40
46932;DHT22;32670;51.464;11.964;2024-01-25T07:57:23;21.00;39.30
46932;DHT22;32670;51.464;11.964;2024-01-25T07:59:48;21.00;39.50
46932;DHT22;32670;51.464;11.964;2024-01-25T08:02:14;21.00;39.90
46932;DHT22;32670;51.464;11.964;2024-01-25T08:04:39;21.00;40.00
46932;DHT22;32670;51.464;11.964;2024-01-25T08:07:05;21.00;39.90
46932;DHT22;32670;51.464;11.964;2024-01-25T08:09:30;21.10;39.70
46932;DHT22;32670;51.464;11.964;2024-01-25T08:11:55;21.10;39.90
46932;DHT22;32670;51.464;11.964;2024-01-25T08:14:21;21.10;40.10
46932;DHT22;32670;51.464;11.964;2024-01-25T08:16:46;21.10;40.10
46932;DHT22;32670;51.464;11.964;2024-01-25T08:19:12;21.10;40.10
46932;DHT22;32670;51.464;11.964;2024-01-25T08:21:37;21.10;40.20
46932;DHT22;32670;51.464;11.964;2024-01-25T08:24:03;21.10;40.30
46932;DHT22;32670;51.464;11.964;2024-01-25T08:26:29;21.10;40.20
46932;DHT22;32670;51.464;11.964;2024-01-25T08:28:55;21.10;40.30
46932;DHT22;32670;51.464;11.964;2024-01-25T08:31:20;21.10;40.30
46932;DHT22;32670;51.464;11.964;2024-01-25T08:33:46;21.10;40.70
46932;DHT22;32670;51.464;11.964;2024-01-25T08:36:13;21.20;41.10
46932;DHT22;32670;51.464;11.964;2024-01-25T08:38:41;21.20;41.10
46932;DHT22;32670;51.464;11.964;2024-01-25T08:41:07;21.20;41.60
46932;DHT22;32670;51.464;11.964;2024-01-25T08:43:32;21.30;41.40
46932;DHT22;32670;51.464;11.964;2024-01-25T08:45:58;21.30;41.50
46932;DHT22;32670;51.464;11.964;2024-01-25T08:48:23;21.40;41.70
46932;DHT22;32670;51.464;11.964;2024-01-25T08:50:49;21.40;41.90
46932;DHT22;32670;51.464;11.964;2024-01-25T08:53:18;21.40;41.90
46932;DHT22;32670;51.464;11.964;2024-01-25T08:55:44;21.40;42.00
46932;DHT22;32670;51.464;11.964;2024-01-25T08:58:09;21.40;42.00
46932;DHT22;32670;51.464;11.964;2024-01-25T09:00:35;21.40;42.20
46932;DHT22;32670;51.464;11.964;2024-01-25T09:03:00;21.40;42.20
46932;DHT22;32670;51.464;11.964;2024-01-25T09:05:26;21.50;42.40
46932;DHT22;32670;51.464;11.964;2024-01-25T09:07:53;21.40;42.50
46932;DHT22;32670;51.464;11.964;2024-01-25T09:10:19;21.50;42.60
46932;DHT22;32670;51.464;11.964;2024-01-25T09:12:44;21.50;42.60
46932;DHT22;32670;51.464;11.964;2024-01-25T09:15:10;21.50;42.60
46932;DHT22;32670;51.464;11.964;2024-01-25T09:17:36;21.50;42.50
46932;DHT22;32670;51.464;11.964;2024-01-25T09:20:02;21.50;42.60
46932;DHT22;32670;51.464;11.964;2024-01-25T09:22:28;21.50;42.90
46932;DHT22;32670;51.464;11.964;2024-01-25T09:24:53;21.50;42.80
46932;DHT22;32670;51.464;11.964;2024-01-25T09:27:19;21.60;42.90
46932;DHT22;32670;51.464;11.964;2024-01-25T09:29:44;21.50;42.90
46932;DHT22;32670;51.464;11.964;2024-01-25T09:32:10;21.50;43.00
46932;DHT22;32670;51.464;11.964;2024-01-25T09:34:37;21.60;43.10
46932;DHT22;32670;51.464;11.964;2024-01-25T09:37:03;21.50;43.00
46932;DHT22;32670;51.464;11.964;2024-01-25T09:39:29;21.60;43.10
46932;DHT22;32670;51.464;11.964;2024-01-25T09:41:54;21.60;43.20
46932;DHT22;32670;51.464;11.964;2024-01-25T09:44:20;21.60;43.20
46932;DHT22;32670;51.464;11.964;2024-01-25T09:46:46;21.50;43.20
46932;DHT22;32670;51.464;11.964;2024-01-25T09:49:11;21.60;43.30
46932;DHT22;32670;51.464;11.964;2024-01-25T09:51:40;21.60;43.40
46932;DHT22;32670;51.464;11.964;2024-01-25T09:54:06;21.60;43.90
46932;DHT22;32670;51.464;11.964;2024-01-25T09:56:33;21.60;43.40
46932;DHT22;32670;51.464;11.964;2024-01-25T09:58:59;21.60;43.40
46932;DHT22;32670;51.464;11.964;2024-01-25T10:01:26;21.60;43.90
46932;DHT22;32670;51.464;11.964;2024-01-25T10:03:52;21.60;43.70
46932;DHT22;32670;51.464;11.964;2024-01-25T10:06:17;21.60;43.70
46932;DHT22;32670;51.464;11.964;2024-01-25T10:08:44;21.60;43.70
46932;DHT22;32670;51.464;11.964;2024-01-25T10:11:10;21.60;43.70
46932;DHT22;32670;51.464;11.964;2024-01-25T10:13:50;21.60;43.60
46932;DHT22;32670;51.464;11.964;2024-01-25T10:16:19;21.60;43.70
46932;DHT22;32670;51.464;11.964;2024-01-25T10:18:48;21.60;43.70
46932;DHT22;32670;51.464;11.964;2024-01-25T10:21:14;21.60;43.60
46932;DHT22;32670;51.464;11.964;2024-01-25T10:23:43;21.60;43.70
46932;DHT22;32670;51.464;11.964;2024-01-25T10:26:09;21.60;43.70
46932;DHT22;32670;51.464;11.964;2024-01-25T10:28:35;21.60;43.70
46932;DHT22;32670;51.464;11.964;2024-01-25T10:31:01;21.60;43.70
46932;DHT22;32670;51.464;11.964;2024-01-25T10:33:30;21.60;43.70
46932;DHT22;32670;51.464;11.964;2024-01-25T10:35:56;21.60;43.70
46932;DHT22;32670;51.464;11.964;2024-01-25T10:38:30;21.60;43.70
46932;DHT22;32670;51.464;11.964;2024-01-25T10:41:00;21.60;43.70
46932;DHT22;32670;51.464;11.964;2024-01-25T10:43:27;21.70;43.70
46932;DHT22;32670;51.464;11.964;2024-01-25T10:45:53;21.60;43.80
46932;DHT22;32670;51.464;11.964;2024-01-25T10:48:21;21.60;43.80
46932;DHT22;32670;51.464;11.964;2024-01-25T10:50:48;21.70;43.80
46932;DHT22;32670;51.464;11.964;2024-01-25T10:53:15;21.60;43.70
46932;DHT22;32670;51.464;11.964;2024-01-25T10:55:41;21.60;43.80
46932;DHT22;32670;51.464;11.964;2024-01-25T10:58:08;21.70;43.80
46932;DHT22;32670;51.464;11.964;2024-01-25T11:00:36;21.60;43.80
46932;DHT22;32670;51.464;11.964;2024-01-25T11:03:03;21.70;43.80
46932;DHT22;32670;51.464;11.964;2024-01-25T11:05:31;21.60;43.80
46932;DHT22;32670;51.464;11.964;2024-01-25T11:07:57;21.60;43.80
46932;DHT22;32670;51.464;11.964;2024-01-25T11:10:25;21.60;43.80
46932;DHT22;32670;51.464;11.964;2024-01-25T11:13:00;21.70;43.90
46932;DHT22;32670;51.464;11.964;2024-01-25T11:17:58;21.70;43.90
46932;DHT22;32670;51.464;11.964;2024-01-25T11:20:25;21.60;43.90
46932;DHT22;32670;51.464;11.964;2024-01-25T11:23:05;21.70;43.90
46932;DHT22;32670;51.464;11.964;2024-01-25T11:25:32;21.70;43.90
46932;DHT22;32670;51.464;11.964;2024-01-25T11:27:58;21.60;43.90
46932;DHT22;32670;51.464;11.964;2024-01-25T11:30:25;21.70;43.90
46932;DHT22;32670;51.464;11.964;2024-01-25T11:32:51;21.60;43.80
46932;DHT22;32670;51.464;11.964;2024-01-25T11:35:16;21.60;43.90
46932;DHT22;32670;51.464;11.964;2024-01-25T11:37:46;21.70;43.90
46932;DHT22;32670;51.464;11.964;2024-01-25T11:40:12;21.60;43.90
46932;DHT22;32670;51.464;11.964;2024-01-25T11:42:39;21.70;43.90
46932;DHT22;32670;51.464;11.964;2024-01-25T11:45:07;21.70;44.00
46932;DHT22;32670;51.464;11.964;2024-01-25T11:47:34;21.60;43.90
46932;DHT22;32670;51.464;11.964;2024-01-25T11:49:59;21.70;43.90
46932;DHT22;32670;51.464;11.964;2024-01-25T11:52:25;21.70;44.00
46932;DHT22;32670;51.464;11.964;2024-01-25T11:54:51;21.70;43.90
46932;DHT22;32670;51.464;11.964;2024-01-25T11:57:17;21.70;43.90
46932;DHT22;32670;51.464;11.964;2024-01-25T11:59:43;21.70;43.90
46932;DHT22;32670;51.464;11.964;2024-01-25T12:02:14;21.70;43.90
46932;DHT22;32670;51.464;11.964;2024-01-25T12:04:40;21.70;43.90
46932;DHT22;32670;51.464;11.964;2024-01-25T12:07:06;21.70;43.90
46932;DHT22;32670;51.464;11.964;2024-01-25T12:09:32;21.70;43.90
46932;DHT22;32670;51.464;11.964;2024-01-25T12:12:00;21.70;43.90
46932;DHT22;32670;51.464;11.964;2024-01-25T12:14:27;21.70;43.90
46932;DHT22;32670;51.464;11.964;2024-01-25T12:16:55;21.70;44.50
46932;DHT22;32670;51.464;11.964;2024-01-25T12:19:20;21.70;43.90
46932;DHT22;32670;51.464;11.964;2024-01-25T12:21:47;21.70;43.80
46932;DHT22;32670;51.464;11.964;2024-01-25T12:24:12;21.70;43.90
46932;DHT22;32670;51.464;11.964;2024-01-25T12:26:38;21.70;43.90
46932;DHT22;32670;51.464;11.964;2024-01-25T12:29:04;21.70;43.90
46932;DHT22;32670;51.464;11.964;2024-01-25T12:31:30;21.70;43.90
46932;DHT22;32670;51.464;11.964;2024-01-25T12:33:56;21.70;43.90
46932;DHT22;32670;51.464;11.964;2024-01-25T12:36:22;21.70;43.90
46932;DHT22;32670;51.464;11.964;2024-01-25T12:38:47;21.70;43.90
46932;DHT22;32670;51.464;11.964;2024-01-25T12:41:14;21.70;43.90
46932;DHT22;32670;51.464;11.964;2024-01-25T12:43:40;21.70;43.90
46932;DHT22;32670;51.464;11.964;2024-01-25T12:46:06;21.70;43.90
46932;DHT22;32670;51.464;11.964;2024-01-25T12:48:31;21.70;43.90
46932;DHT22;32670;51.464;11.964;2024-01-25T12:50:56;21.70;43.90
46932;DHT22;32670;51.464;11.964;2024-01-25T12:53:22;21.70;43.90
46932;DHT22;32670;51.464;11.964;2024-01-25T12:55:48;21.70;43.90
46932;DHT22;32670;51.464;11.964;2024-01-25T12:58:13;21.70;43.90
46932;DHT22;32670;51.464;11.964;2024-01-25T13:00:39;21.70;43.90
46932;DHT22;32670;51.464;11.964;2024-01-25T13:03:04;21.70;43.90
46932;DHT22;32670;51.464;11.964;2024-01-25T13:05:30;21.70;43.90
46932;DHT22;32670;51.464;11.964;2024-01-25T13:08:00;21.70;43.90
46932;DHT22;32670;51.464;11.964;2024-01-25T13:10:25;21.70;43.90
46932;DHT22;32670;51.464;11.964;2024-01-25T13:12:51;21.70;43.90
46932;DHT22;32670;51.464;11.964;2024-01-25T13:15:16;21.70;44.20
46932;DHT22;32670;51.464;11.964;2024-01-25T13:17:42;21.70;43.90
46932;DHT22;32670;51.464;11.964;2024-01-25T13:20:07;21.70;43.90
46932;DHT22;32670;51.464;11.964;2024-01-25T13:22:34;21.70;43.90
46932;DHT22;32670;51.464;11.964;2024-01-25T13:25:00;21.70;43.90
46932;DHT22;32670;51.464;11.964;2024-01-25T13:27:26;21.70;43.90
46932;DHT22;32670;51.464;11.964;2024-01-25T13:29:52;21.70;43.90
46932;DHT22;32670;51.464;11.964;2024-01-25T13:32:18;21.70;43.90
46932;DHT22;32670;51.464;11.964;2024-01-25T13:34:43;21.70;43.90
46932;DHT22;32670;51.464;11.964;2024-01-25T13:37:09;21.70;43.90
46932;DHT22;32670;51.464;11.964;2024-01-25T13:39:34;21.70;43.90
46932;DHT22;32670;51.464;11.964;2024-01-25T13:41:59;21.70;43.90
46932;DHT22;32670;51.464;11.964;2024-01-25T13:44:25;21.70;43.90
46932;DHT22;32670;51.464;11.964;2024-01-25T13:46:50;21.70;43.90
46932;DHT22;32670;51.464;11.964;2024-01-25T13:49:16;21.70;44.00
46932;DHT22;32670;51.464;11.964;2024-01-25T13:51:43;21.70;44.10
46932;DHT22;32670;51.464;11.964;2024-01-25T13:54:09;21.70;44.10
46932;DHT22;32670;51.464;11.964;2024-01-25T13:56:34;21.70;44.20
46932;DHT22;32670;51.464;11.964;2024-01-25T13:58:59;21.70;44.10
46932;DHT22;32670;51.464;11.964;2024-01-25T14:01:25;21.70;43.90
46932;DHT22;32670;51.464;11.964;2024-01-25T14:03:50;21.70;44.00
46932;DHT22;32670;51.464;11.964;2024-01-25T14:06:16;21.70;44.00
46932;DHT22;32670;51.464;11.964;2024-01-25T14:08:42;21.70;44.00
46932;DHT22;32670;51.464;11.964;2024-01-25T14:11:08;21.70;44.00
46932;DHT22;32670;51.464;11.964;2024-01-25T14:13:34;21.70;44.00
46932;DHT22;32670;51.464;11.964;2024-01-25T14:16:00;21.70;44.00
46932;DHT22;32670;51.464;11.964;2024-01-25T14:18:27;21.70;44.00
46932;DHT22;32670;51.464;11.964;2024-01-25T14:20:53;21.70;44.00
46932;DHT22;32670;51.464;11.964;2024-01-25T14:23:19;21.70;44.00
46932;DHT22;32670;51.464;11.964;2024-01-25T14:25:44;21.70;43.90
46932;DHT22;32670;51.464;11.964;2024-01-25T14:28:10;21.70;44.00
46932;DHT22;32670;51.464;11.964;2024-01-25T14:30:36;21.70;44.00
46932;DHT22;32670;51.464;11.964;2024-01-25T14:33:01;21.70;44.10
46932;DHT22;32670;51.464;11.964;2024-01-25T14:35:29;21.70;44.00
46932;DHT22;32670;51.464;11.964;2024-01-25T14:37:55;21.70;44.00
46932;DHT22;32670;51.464;11.964;2024-01-25T14:40:21;21.70;44.00
46932;DHT22;32670;51.464;11.964;2024-01-25T14:42:47;21.70;44.00
46932;DHT22;32670;51.464;11.964;2024-01-25T14:45:12;21.70;44.00
46932;DHT22;32670;51.464;11.964;2024-01-25T14:47:38;21.70;44.00
46932;DHT22;32670;51.464;11.964;2024-01-25T14:50:04;21.70;44.00
46932;DHT22;32670;51.464;11.964;2024-01-25T14:52:30;21.70;44.00
46932;DHT22;32670;51.464;11.964;2024-01-25T14:55:02;21.70;44.10
46932;DHT22;32670;51.464;11.964;2024-01-25T14:57:27;21.70;44.00
46932;DHT22;32670;51.464;11.964;2024-01-25T14:59:53;21.70;44.00
46932;DHT22;32670;51.464;11.964;2024-01-25T15:02:18;21.70;44.00
46932;DHT22;32670;51.464;11.964;2024-01-25T15:04:44;21.70;44.00
46932;DHT22;32670;51.464;11.964;2024-01-25T15:07:09;21.70;44.00
46932;DHT22;32670;51.464;11.964;2024-01-25T15:09:34;21.70;44.10